createdAt,value
2017-11-08T00:01:27.288Z,98053.95
2017-11-08T00:03:55.584Z,98062.12
2017-11-08T00:06:23.869Z,98063.04
2017-11-08T00:08:52.146Z,98056.66
2017-11-08T00:11:20.436Z,98057.53
2017-11-08T00:13:49.478Z,98058.37
2017-11-08T00:16:17.765Z,98060.99
2017-11-08T00:18:46.058Z,98054.97
2017-11-08T00:21:14.336Z,98056.78
2017-11-08T00:23:42.620Z,98059.70
2017-11-08T00:26:10.912Z,98060.08
2017-11-08T00:28:39.218Z,98064.38
2017-11-08T00:31:07.504Z,98053.38
2017-11-08T00:33:35.806Z,98052.55
2017-11-08T00:36:04.090Z,98052.14
2017-11-08T00:38:32.376Z,98054.70
2017-11-08T00:41:00.674Z,98056.83
2017-11-08T00:43:29.725Z,98057.30
2017-11-08T00:45:58.025Z,98060.70
2017-11-08T00:48:26.322Z,98061.52
2017-11-08T00:50:54.613Z,98070.92
2017-11-08T00:53:22.905Z,98076.48
2017-11-08T00:55:51.184Z,98075.21
2017-11-08T00:58:19.465Z,98073.93
2017-11-08T01:00:47.749Z,98079.71
2017-11-08T01:03:16.032Z,98079.27
2017-11-08T01:05:44.331Z,98076.80
2017-11-08T01:08:12.620Z,98069.98
2017-11-08T01:10:40.981Z,98077.27
2017-11-08T01:13:09.274Z,98087.97
2017-11-08T01:15:37.566Z,98098.62
2017-11-08T01:18:05.864Z,98111.86
2017-11-08T01:20:34.147Z,98106.73
2017-11-08T01:23:02.449Z,98093.13
2017-11-08T01:25:30.889Z,98088.03
2017-11-08T01:27:59.165Z,98079.92
2017-11-08T01:30:27.468Z,98079.91
2017-11-08T01:32:55.773Z,98070.12
2017-11-08T01:35:24.058Z,98058.63
2017-11-08T01:37:55.552Z,98052.55
2017-11-08T01:40:23.837Z,98048.77
2017-11-08T01:42:52.128Z,98040.64
2017-11-08T01:45:20.424Z,98028.12
2017-11-08T01:47:48.717Z,98028.88
2017-11-08T01:50:17.075Z,98026.33
2017-11-08T01:52:45.346Z,98032.09
2017-11-08T01:55:13.659Z,98024.91
2017-11-08T01:57:41.944Z,98027.98
2017-11-08T02:00:11.046Z,98031.33
2017-11-08T02:02:39.330Z,98025.50
2017-11-08T02:05:07.621Z,98028.58
2017-11-08T02:07:35.908Z,98031.21
2017-11-08T02:10:04.230Z,98024.84
2017-11-08T02:12:32.520Z,98028.66
2017-11-08T02:15:01.577Z,98024.80
2017-11-08T02:17:29.894Z,98038.50
2017-11-08T02:19:58.968Z,98031.31
2017-11-08T02:22:27.252Z,98036.89
2017-11-08T02:24:56.316Z,98033.47
2017-11-08T02:27:30.073Z,98030.50
2017-11-08T02:29:58.365Z,98024.09
2017-11-08T02:32:26.651Z,98019.00
2017-11-08T02:34:54.931Z,98016.00
2017-11-08T02:37:23.209Z,98007.88
2017-11-08T02:39:51.532Z,98007.51
2017-11-08T02:42:19.815Z,98004.08
2017-11-08T02:44:49.433Z,98002.81
2017-11-08T02:47:18.483Z,98008.77
2017-11-08T02:49:46.755Z,98010.90
2017-11-08T02:52:15.064Z,98011.75
2017-11-08T02:54:43.342Z,98013.89
2017-11-08T02:57:11.620Z,98012.63
2017-11-08T02:59:42.255Z,98018.56
2017-11-08T03:02:12.380Z,98018.56
2017-11-08T03:04:47.357Z,98023.69
2017-11-08T03:07:15.658Z,98025.34
2017-11-08T03:09:43.942Z,98031.77
2017-11-08T03:12:12.225Z,98028.36
2017-11-08T03:14:40.515Z,98023.23
2017-11-08T03:17:08.805Z,98015.55
2017-11-08T03:19:38.767Z,98035.17
2017-11-08T03:22:07.058Z,98028.36
2017-11-08T03:24:35.355Z,98039.88
2017-11-08T03:27:03.641Z,98039.03
2017-11-08T03:29:31.939Z,98037.74
2017-11-08T03:32:00.237Z,98032.19
2017-11-08T03:34:28.572Z,98037.72
2017-11-08T03:36:56.853Z,98047.13
2017-11-08T03:39:26.055Z,98053.52
2017-11-08T03:41:54.327Z,98047.98
2017-11-08T03:44:22.606Z,98021.98
2017-11-08T03:46:50.896Z,98017.26
2017-11-08T03:49:19.176Z,98027.91
2017-11-08T03:51:47.456Z,98022.38
2017-11-08T03:54:15.741Z,98012.98
2017-11-08T03:56:44.609Z,98012.94
2017-11-08T03:59:12.897Z,98013.01
2017-11-08T04:01:41.993Z,98006.20
2017-11-08T04:04:10.277Z,98001.95
2017-11-08T04:06:38.572Z,98005.34
2017-11-08T04:09:06.997Z,98003.25
2017-11-08T04:11:35.292Z,98002.80
2017-11-08T04:14:03.589Z,98009.19
2017-11-08T04:16:31.877Z,97999.39
2017-11-08T04:19:00.819Z,97996.82
2017-11-08T04:21:29.117Z,97976.75
2017-11-08T04:23:57.392Z,97976.30
2017-11-08T04:26:25.696Z,97987.44
2017-11-08T04:28:53.999Z,97989.06
2017-11-08T04:31:24.263Z,97981.48
2017-11-08T04:33:52.553Z,97981.05
2017-11-08T04:36:20.845Z,97967.38
2017-11-08T04:38:49.143Z,97963.11
2017-11-08T04:41:17.429Z,97972.96
2017-11-08T04:43:46.696Z,97986.59
2017-11-08T04:46:14.984Z,97977.20
2017-11-08T04:48:43.277Z,97979.28
2017-11-08T04:51:11.608Z,97983.17
2017-11-08T04:53:39.898Z,97989.56
2017-11-08T04:56:08.193Z,97994.70
2017-11-08T04:58:36.489Z,97996.41
2017-11-08T05:01:04.782Z,97991.30
2017-11-08T05:03:33.087Z,97992.16
2017-11-08T05:06:01.375Z,97992.60
2017-11-08T05:08:29.673Z,97989.59
2017-11-08T05:10:57.960Z,98008.79
2017-11-08T05:13:26.247Z,98011.34
2017-11-08T05:15:54.528Z,98015.17
2017-11-08T05:18:25.850Z,98010.05
2017-11-08T05:20:54.138Z,98005.81
2017-11-08T05:23:22.427Z,98004.53
2017-11-08T05:25:50.731Z,97998.13
2017-11-08T05:28:19.013Z,97988.75
2017-11-08T05:30:47.305Z,98000.25
2017-11-08T05:33:15.595Z,98001.95
2017-11-08T05:35:43.890Z,98003.66
2017-11-08T05:38:12.181Z,98002.81
2017-11-08T05:40:40.476Z,98002.80
2017-11-08T05:43:08.775Z,98006.22
2017-11-08T05:45:37.056Z,98012.60
2017-11-08T05:48:05.336Z,98011.77
2017-11-08T05:50:33.621Z,98005.38
2017-11-08T05:53:01.912Z,98003.66
2017-11-08T05:55:30.200Z,98003.23
2017-11-08T05:57:58.475Z,98009.59
2017-11-08T06:00:26.778Z,98010.41
2017-11-08T06:02:55.101Z,98012.17
2017-11-08T06:05:23.385Z,98014.75
2017-11-08T06:07:51.956Z,98021.13
2017-11-08T06:10:20.248Z,98022.42
2017-11-08T06:12:48.525Z,98015.16
2017-11-08T06:15:16.848Z,98025.41
2017-11-08T06:17:45.143Z,98034.31
2017-11-08T06:20:13.454Z,98028.38
2017-11-08T06:22:41.741Z,98029.23
2017-11-08T06:25:10.030Z,98030.92
2017-11-08T06:27:38.336Z,98038.16
2017-11-08T06:30:06.677Z,98041.55
2017-11-08T06:32:34.963Z,98050.94
2017-11-08T06:35:03.242Z,98046.67
2017-11-08T06:37:31.540Z,98051.81
2017-11-08T06:39:59.824Z,98051.81
2017-11-08T06:42:28.138Z,98050.08
2017-11-08T06:44:56.411Z,98050.94
2017-11-08T06:47:24.717Z,98049.25
2017-11-08T06:49:53.966Z,98047.55
2017-11-08T06:52:22.252Z,98053.50
2017-11-08T06:54:50.541Z,98043.71
2017-11-08T06:57:22.488Z,98050.13
2017-11-08T06:59:50.768Z,98046.70
2017-11-08T07:02:19.055Z,98047.98
2017-11-08T07:04:47.337Z,98049.27
2017-11-08T07:07:15.620Z,98050.53
2017-11-08T07:09:43.909Z,98044.55
2017-11-08T07:12:12.196Z,98042.42
2017-11-08T07:14:40.501Z,98044.56
2017-11-08T07:17:10.316Z,98054.36
2017-11-08T07:19:38.602Z,98051.38
2017-11-08T07:22:06.885Z,98057.80
2017-11-08T07:24:35.180Z,98065.87
2017-11-08T07:27:03.463Z,98067.56
2017-11-08T07:29:31.750Z,98073.53
2017-11-08T07:32:00.038Z,98080.36
2017-11-08T07:34:28.320Z,98080.36
2017-11-08T07:36:59.557Z,98076.95
2017-11-08T07:39:27.855Z,98069.30
2017-11-08T07:41:57.625Z,98074.80
2017-11-08T07:44:25.947Z,98069.27
2017-11-08T07:46:55.044Z,98069.28
2017-11-08T07:49:23.347Z,98072.67
2017-11-08T07:51:51.624Z,98062.47
2017-11-08T07:54:19.920Z,98068.84
2017-11-08T07:56:48.892Z,98074.83
2017-11-08T07:59:20.036Z,98077.79
2017-11-08T08:01:48.322Z,98068.02
2017-11-08T08:04:16.600Z,98072.26
2017-11-08T08:06:45.457Z,98079.48
2017-11-08T08:09:13.739Z,98083.31
2017-11-08T08:11:42.027Z,98083.71
2017-11-08T08:14:10.312Z,98091.38
2017-11-08T08:16:38.601Z,98091.81
2017-11-08T08:19:06.884Z,98095.66
2017-11-08T08:21:35.176Z,98105.45
2017-11-08T08:24:03.483Z,98090.99
2017-11-08T08:26:31.772Z,98084.20
2017-11-08T08:29:00.993Z,98079.05
2017-11-08T08:31:29.300Z,98080.33
2017-11-08T08:33:57.584Z,98085.46
2017-11-08T08:36:25.869Z,98095.70
2017-11-08T08:38:54.167Z,98099.97
2017-11-08T08:41:22.789Z,98094.44
2017-11-08T08:43:51.065Z,98090.61
2017-11-08T08:46:19.353Z,98089.31
2017-11-08T08:48:53.947Z,98085.05
2017-11-08T08:51:22.847Z,98083.36
2017-11-08T08:53:51.131Z,98073.96
2017-11-08T08:56:19.409Z,98076.48
2017-11-08T08:58:47.692Z,98090.12
2017-11-08T09:01:15.969Z,98080.73
2017-11-08T09:03:44.256Z,98080.73
2017-11-08T09:06:12.540Z,98090.57
2017-11-08T09:08:40.856Z,98096.47
2017-11-08T09:11:12.957Z,98103.27
2017-11-08T09:13:41.249Z,98101.15
2017-11-08T09:16:09.542Z,98102.44
2017-11-08T09:18:37.842Z,98106.28
2017-11-08T09:21:06.901Z,98107.61
2017-11-08T09:23:35.219Z,98109.34
2017-11-08T09:26:03.846Z,98110.60
2017-11-08T09:28:32.117Z,98112.30
2017-11-08T09:31:00.407Z,98119.53
2017-11-08T09:33:28.697Z,98127.69
2017-11-08T09:35:56.982Z,98126.79
2017-11-08T09:38:25.254Z,98135.30
2017-11-08T09:40:53.540Z,98137.44
2017-11-08T09:43:22.083Z,98140.46
2017-11-08T09:45:50.389Z,98137.01
2017-11-08T09:48:18.681Z,98140.44
2017-11-08T09:50:47.744Z,98139.12
2017-11-08T09:53:16.029Z,98143.41
2017-11-08T09:55:44.313Z,98145.12
2017-11-08T09:58:12.608Z,98145.11
2017-11-08T10:00:41.520Z,98134.89
2017-11-08T10:03:09.813Z,98143.89
2017-11-08T10:05:38.088Z,98139.20
2017-11-08T10:08:12.744Z,98143.86
2017-11-08T10:10:45.835Z,98145.14
2017-11-08T10:13:14.115Z,98143.88
2017-11-08T10:15:42.912Z,98152.84
2017-11-08T10:18:14.127Z,98154.09
2017-11-08T10:20:42.412Z,98149.42
2017-11-08T10:23:10.696Z,98153.23
2017-11-08T10:25:39.063Z,98160.46
2017-11-08T10:28:07.351Z,98167.72
2017-11-08T10:30:35.659Z,98177.12
2017-11-08T10:33:03.960Z,98168.13
2017-11-08T10:35:32.256Z,98159.17
2017-11-08T10:38:00.553Z,98163.00
2017-11-08T10:40:28.839Z,98163.47
2017-11-08T10:42:57.119Z,98163.45
2017-11-08T10:45:26.171Z,98158.78
2017-11-08T10:47:55.398Z,98165.59
2017-11-08T10:50:24.458Z,98161.73
2017-11-08T10:52:54.665Z,98154.89
2017-11-08T10:55:22.969Z,98154.49
2017-11-08T10:57:51.262Z,98154.89
2017-11-08T11:00:25.848Z,98150.64
2017-11-08T11:02:57.999Z,98150.67
2017-11-08T11:05:26.288Z,98147.22
2017-11-08T11:07:54.581Z,98143.36
2017-11-08T11:10:22.881Z,98139.48
2017-11-08T11:12:51.204Z,98138.62
2017-11-08T11:15:19.497Z,98143.25
2017-11-08T11:17:47.797Z,98138.88
2017-11-08T11:20:18.916Z,98140.27
2017-11-08T11:22:47.209Z,98137.25
2017-11-08T11:25:17.461Z,98140.14
2017-11-08T11:27:45.772Z,98140.26
2017-11-08T11:30:14.062Z,98138.14
2017-11-08T11:32:44.285Z,98132.57
2017-11-08T11:35:12.577Z,98141.08
2017-11-08T11:37:46.417Z,98147.92
2017-11-08T11:40:14.709Z,98146.20
2017-11-08T11:42:43.811Z,98142.34
2017-11-08T11:45:12.113Z,98148.30
2017-11-08T11:47:40.413Z,98155.66
2017-11-08T11:50:08.701Z,98154.39
2017-11-08T11:52:36.997Z,98151.90
2017-11-08T11:55:05.305Z,98149.75
2017-11-08T11:57:33.610Z,98153.12
2017-11-08T12:00:02.714Z,98144.95
2017-11-08T12:02:31.041Z,98141.55
2017-11-08T12:05:00.100Z,98139.05
2017-11-08T12:07:28.404Z,98147.23
2017-11-08T12:09:57.509Z,98141.70
2017-11-08T12:12:25.805Z,98142.55
2017-11-08T12:14:54.107Z,98144.27
2017-11-08T12:17:22.389Z,98137.47
2017-11-08T12:19:50.685Z,98138.30
2017-11-08T12:22:18.977Z,98140.02
2017-11-08T12:24:47.490Z,98137.44
2017-11-08T12:27:15.769Z,98138.70
2017-11-08T12:29:44.076Z,98142.48
2017-11-08T12:32:12.373Z,98136.88
2017-11-08T12:34:40.678Z,98143.70
2017-11-08T12:37:09.841Z,98138.14
2017-11-08T12:39:38.153Z,98142.32
2017-11-08T12:42:12.786Z,98145.78
2017-11-08T12:44:47.282Z,98146.10
2017-11-08T12:47:15.585Z,98145.30
2017-11-08T12:49:43.879Z,98150.41
2017-11-08T12:52:12.169Z,98156.36
2017-11-08T12:54:40.461Z,98159.83
2017-11-08T12:57:08.756Z,98161.55
2017-11-08T12:59:37.066Z,98170.95
2017-11-08T13:02:05.373Z,98173.03
2017-11-08T13:04:33.774Z,98170.14
2017-11-08T13:07:02.081Z,98172.23
2017-11-08T13:09:33.336Z,98169.25
2017-11-08T13:12:01.622Z,98174.02
2017-11-08T13:14:30.689Z,98179.56
2017-11-08T13:16:58.989Z,98179.52
2017-11-08T13:19:28.046Z,98178.28
2017-11-08T13:21:56.341Z,98180.36
2017-11-08T13:24:24.637Z,98181.19
2017-11-08T13:26:53.048Z,98182.45
2017-11-08T13:29:21.584Z,98188.88
2017-11-08T13:31:49.861Z,98172.23
2017-11-08T13:34:18.149Z,98171.34
2017-11-08T13:36:46.440Z,98170.50
2017-11-08T13:39:14.741Z,98180.30
2017-11-08T13:41:43.375Z,98180.25
2017-11-08T13:44:13.761Z,98178.08
2017-11-08T13:46:42.066Z,98182.77
2017-11-08T13:49:13.197Z,98183.64
2017-11-08T13:51:41.499Z,98185.75
2017-11-08T13:54:10.461Z,98180.99
2017-11-08T13:56:38.770Z,98182.80
2017-11-08T13:59:07.074Z,98184.14
2017-11-08T14:01:35.394Z,98182.08
2017-11-08T14:04:07.318Z,98183.38
2017-11-08T14:06:35.619Z,98188.88
2017-11-08T14:09:03.911Z,98191.41
2017-11-08T14:11:32.206Z,98193.14
2017-11-08T14:14:00.860Z,98202.05
2017-11-08T14:16:29.918Z,98211.90
2017-11-08T14:18:58.975Z,98220.42
2017-11-08T14:21:27.285Z,98217.87
2017-11-08T14:23:56.341Z,98219.16
2017-11-08T14:26:24.625Z,98221.75
2017-11-08T14:28:52.935Z,98221.33
2017-11-08T14:31:21.225Z,98220.02
2017-11-08T14:33:50.239Z,98217.47
2017-11-08T14:36:18.918Z,98222.67
2017-11-08T14:38:47.212Z,98224.80
2017-11-08T14:41:15.514Z,98224.80
2017-11-08T14:43:43.804Z,98227.76
2017-11-08T14:46:12.105Z,98226.51
2017-11-08T14:48:40.398Z,98226.89
2017-11-08T14:51:09.170Z,98231.19
2017-11-08T14:53:41.425Z,98232.51
2017-11-08T14:56:09.705Z,98234.25
2017-11-08T14:58:38.001Z,98232.52
2017-11-08T15:01:06.299Z,98234.25
2017-11-08T15:03:34.586Z,98238.12
2017-11-08T15:06:02.899Z,98233.84
2017-11-08T15:08:31.215Z,98234.67
2017-11-08T15:10:59.513Z,98236.38
2017-11-08T15:13:27.808Z,98236.33
2017-11-08T15:15:56.105Z,98244.03
2017-11-08T15:18:24.390Z,98244.05
2017-11-08T15:20:52.702Z,98246.22
2017-11-08T15:23:21.038Z,98249.18
2017-11-08T15:25:49.346Z,98244.03
2017-11-08T15:28:17.643Z,98246.61
2017-11-08T15:30:45.938Z,98237.20
2017-11-08T15:33:14.233Z,98247.94
2017-11-08T15:35:42.538Z,98246.65
2017-11-08T15:38:10.877Z,98246.23
2017-11-08T15:40:39.188Z,98248.80
2017-11-08T15:43:08.190Z,98249.64
2017-11-08T15:45:36.493Z,98261.63
2017-11-08T15:48:04.796Z,98256.49
2017-11-08T15:50:33.093Z,98258.64
2017-11-08T15:53:01.385Z,98262.47
2017-11-08T15:55:29.694Z,98266.30
2017-11-08T15:57:57.976Z,98270.59
2017-11-08T16:00:26.976Z,98274.41
2017-11-08T16:02:55.261Z,98277.42
2017-11-08T16:05:23.562Z,98273.58
2017-11-08T16:07:51.850Z,98277.41
2017-11-08T16:10:20.155Z,98276.55
2017-11-08T16:12:51.220Z,98276.13
2017-11-08T16:15:19.513Z,98276.58
2017-11-08T16:17:52.030Z,98281.27
2017-11-08T16:20:21.085Z,98284.68
2017-11-08T16:22:49.389Z,98285.12
2017-11-08T16:25:17.690Z,98280.83
2017-11-08T16:27:46.747Z,98282.96
2017-11-08T16:30:15.045Z,98285.55
2017-11-08T16:32:43.354Z,98290.23
2017-11-08T16:35:11.671Z,98290.22
2017-11-08T16:37:39.971Z,98295.36
2017-11-08T16:40:08.275Z,98293.63
2017-11-08T16:42:36.620Z,98298.77
2017-11-08T16:45:04.913Z,98301.32
2017-11-08T16:47:34.877Z,98294.50
2017-11-08T16:50:03.505Z,98297.91
2017-11-08T16:52:31.853Z,98297.89
2017-11-08T16:55:00.162Z,98300.44
2017-11-08T16:57:28.765Z,98278.28
2017-11-08T16:59:57.593Z,98292.34
2017-11-08T17:02:25.902Z,98295.33
2017-11-08T17:04:54.206Z,98295.78
2017-11-08T17:07:22.501Z,98298.77
2017-11-08T17:09:50.811Z,98299.64
2017-11-08T17:12:19.110Z,98292.34
2017-11-08T17:14:47.410Z,98299.17
2017-11-08T17:17:15.718Z,98307.71
2017-11-08T17:19:44.111Z,98300.46
2017-11-08T17:22:12.398Z,98303.86
2017-11-08T17:24:40.690Z,98305.57
2017-11-08T17:27:08.985Z,98311.53
2017-11-08T17:29:37.286Z,98312.41
2017-11-08T17:32:05.591Z,98311.13
2017-11-08T17:34:33.893Z,98312.83
2017-11-08T17:37:02.195Z,98312.00
2017-11-08T17:39:30.497Z,98312.88
2017-11-08T17:41:58.800Z,98312.43
2017-11-08T17:44:27.113Z,98314.59
2017-11-08T17:46:55.468Z,98318.83
2017-11-08T17:49:23.773Z,98326.95
2017-11-08T17:51:52.085Z,98320.97
2017-11-08T17:54:20.396Z,98331.65
2017-11-08T17:56:48.850Z,98327.79
2017-11-08T17:59:17.195Z,98334.65
2017-11-08T18:01:45.686Z,98338.89
2017-11-08T18:04:14.011Z,98331.63
2017-11-08T18:06:42.987Z,98340.99
2017-11-08T18:09:11.282Z,98342.28
2017-11-08T18:11:39.658Z,98342.68
2017-11-08T18:14:07.957Z,98350.33
2017-11-08T18:16:36.438Z,98349.03
2017-11-08T18:19:06.466Z,98351.61
2017-11-08T18:21:34.858Z,98353.76
2017-11-08T18:24:03.269Z,98349.94
2017-11-08T18:26:31.780Z,98354.60
2017-11-08T18:29:01.065Z,98358.42
2017-11-08T18:31:29.753Z,98370.73
2017-11-08T18:33:58.242Z,98370.29
2017-11-08T18:36:27.797Z,98371.16
2017-11-08T18:38:57.899Z,98374.49
2017-11-08T18:41:27.443Z,98376.14
2017-11-08T18:43:56.930Z,98377.44
2017-11-08T18:46:26.595Z,98378.36
2017-11-08T18:48:57.446Z,98380.42
2017-11-08T18:51:27.245Z,98382.13
2017-11-08T18:53:58.510Z,98388.02
2017-11-08T18:56:28.391Z,98385.12
2017-11-08T18:58:58.096Z,98383.44
2017-11-08T19:01:27.920Z,98383.09
2017-11-08T19:03:57.625Z,98384.31
2017-11-08T19:06:27.453Z,98390.30
2017-11-08T19:08:57.302Z,98387.73
2017-11-08T19:11:27.222Z,98391.59
2017-11-08T19:13:57.054Z,98391.91
2017-11-08T19:16:27.777Z,98390.27
2017-11-08T19:18:57.480Z,98393.79
2017-11-08T19:21:28.050Z,98389.50
2017-11-08T19:23:57.854Z,98391.16
2017-11-08T19:26:28.074Z,98396.34
2017-11-08T19:28:58.981Z,98391.59
2017-11-08T19:31:28.861Z,98395.05
2017-11-08T19:33:58.753Z,98391.22
2017-11-08T19:36:28.889Z,98388.20
2017-11-08T19:39:00.173Z,98397.20
2017-11-08T19:41:30.165Z,98394.21
2017-11-08T19:44:00.070Z,98389.97
2017-11-08T19:46:29.885Z,98392.53
2017-11-08T19:49:01.313Z,98395.09
2017-11-08T19:51:31.224Z,98400.22
2017-11-08T19:54:01.127Z,98400.70
2017-11-08T19:56:31.623Z,98410.56
2017-11-08T19:59:01.598Z,98407.99
2017-11-08T20:01:32.029Z,98404.19
2017-11-08T20:04:02.375Z,98399.91
2017-11-08T20:06:33.186Z,98397.73
2017-11-08T20:09:03.954Z,98399.31
2017-11-08T20:11:34.677Z,98392.97
2017-11-08T20:14:04.593Z,98398.08
2017-11-08T20:16:34.614Z,98404.92
2017-11-08T20:19:04.512Z,98407.94
2017-11-08T20:21:34.411Z,98406.70
2017-11-08T20:24:04.410Z,98407.14
2017-11-08T20:26:34.583Z,98410.13
2017-11-08T20:29:05.239Z,98410.98
2017-11-08T20:31:35.311Z,98408.85
2017-11-08T20:34:05.231Z,98412.29
2017-11-08T20:36:35.033Z,98410.59
2017-11-08T20:39:05.122Z,98405.02
2017-11-08T20:41:35.079Z,98408.39
2017-11-08T20:44:05.041Z,98412.16
2017-11-08T20:46:35.214Z,98408.76
2017-11-08T20:49:06.083Z,98413.45
2017-11-08T20:51:37.102Z,98411.35
2017-11-08T20:54:06.933Z,98415.14
2017-11-08T20:56:37.642Z,98415.18
2017-11-08T20:59:08.218Z,98413.05
2017-11-08T21:01:38.058Z,98419.43
2017-11-08T21:04:07.889Z,98411.30
2017-11-08T21:06:37.711Z,98410.34
2017-11-08T21:09:07.687Z,98404.74
2017-11-08T21:11:37.674Z,98405.90
2017-11-08T21:14:07.575Z,98403.05
2017-11-08T21:16:37.325Z,98408.66
2017-11-08T21:19:07.128Z,98404.25
2017-11-08T21:21:38.751Z,98403.00
2017-11-08T21:24:08.525Z,98403.81
2017-11-08T21:26:38.407Z,98408.86
2017-11-08T21:29:08.106Z,98405.04
2017-11-08T21:31:38.463Z,98406.36
2017-11-08T21:34:08.221Z,98399.92
2017-11-08T21:36:38.796Z,98405.91
2017-11-08T21:39:09.429Z,98409.75
2017-11-08T21:41:39.210Z,98407.22
2017-11-08T21:44:08.634Z,98406.80
2017-11-08T21:46:38.337Z,98415.78
2017-11-08T21:49:07.474Z,98415.70
2017-11-08T21:51:36.377Z,98414.47
2017-11-08T21:54:06.496Z,98418.01
2017-11-08T21:56:34.858Z,98423.97
2017-11-08T21:59:03.173Z,98425.67
2017-11-08T22:01:31.478Z,98418.11
2017-11-08T22:03:59.860Z,98426.16
2017-11-08T22:06:28.176Z,98423.54
2017-11-08T22:08:56.482Z,98428.87
2017-11-08T22:11:24.781Z,98424.41
2017-11-08T22:13:53.073Z,98422.95
2017-11-08T22:16:21.357Z,98424.95
2017-11-08T22:18:49.643Z,98428.44
2017-11-08T22:21:18.693Z,98424.70
2017-11-08T22:23:46.960Z,98425.67
2017-11-08T22:26:15.238Z,98421.42
2017-11-08T22:28:43.521Z,98421.42
2017-11-08T22:31:12.364Z,98423.25
2017-11-08T22:33:41.411Z,98428.77
2017-11-08T22:36:09.705Z,98429.48
2017-11-08T22:38:37.998Z,98426.27
2017-11-08T22:41:06.300Z,98420.31
2017-11-08T22:43:35.359Z,98422.02
2017-11-08T22:46:03.652Z,98419.12
2017-11-08T22:48:31.950Z,98423.52
2017-11-08T22:51:00.269Z,98427.89
2017-11-08T22:53:28.558Z,98426.61
2017-11-08T22:55:56.856Z,98422.39
2017-11-08T22:58:25.146Z,98429.20
2017-11-08T23:00:53.865Z,98435.70
2017-11-08T23:03:22.177Z,98431.33
2017-11-08T23:05:50.466Z,98434.88
2017-11-08T23:08:18.750Z,98433.69
2017-11-08T23:10:47.058Z,98435.38
2017-11-08T23:13:15.352Z,98445.13
2017-11-08T23:15:43.642Z,98435.81
2017-11-08T23:18:11.931Z,98438.26
2017-11-08T23:20:40.233Z,98435.33
2017-11-08T23:23:09.281Z,98440.22
2017-11-08T23:25:37.589Z,98436.23
2017-11-08T23:28:06.344Z,98435.03
2017-11-08T23:30:34.619Z,98442.11
2017-11-08T23:33:02.887Z,98446.04
2017-11-08T23:35:31.159Z,98445.73
2017-11-08T23:37:59.434Z,98446.25
2017-11-08T23:40:27.725Z,98447.34
2017-11-08T23:42:56.026Z,98445.67
2017-11-08T23:45:24.323Z,98442.72
2017-11-08T23:47:53.777Z,98444.97
2017-11-08T23:50:22.929Z,98447.41
2017-11-08T23:52:51.977Z,98443.88
2017-11-08T23:55:20.266Z,98449.34
2017-11-08T23:57:48.549Z,98444.82
